Time;durP1;ratioP1;P1;durP2;ratioP2;P2;SDS_P1;SDS_P2;PMS_P1;PMS_P2;Temp;Humidity;BMP_temperature;BMP_pressure;BME280_temperature;BME280_humidity;BME280_pressure;Samples;Min_cycle;Max_cycle;Signal;HPM_P1;HPM_P2
2023/02/16 00:01:12;;;;;;;;;;;18.40;49.70;;;;;;10080209;28;784;-75
2023/02/16 00:06:13;;;;;;;;;;;18.40;49.70;;;;;;10079922;28;913;-75
2023/02/16 00:16:22;;;;;;;;;;;18.40;49.60;;;;;;10079289;29;621;-75
2023/02/16 00:21:18;;;;;;;;;;;18.40;49.60;;;;;;10079826;28;768;-75
2023/02/16 00:26:13;;;;;;;;;;;18.40;49.70;;;;;;10079387;28;908;-75
2023/02/16 00:31:08;;;;;;;;;;;18.40;49.70;;;;;;10079853;28;1962;-75
2023/02/16 00:36:04;;;;;;;;;;;18.40;49.70;;;;;;10078573;28;1059;-75
2023/02/16 00:40:59;;;;;;;;;;;18.40;49.60;;;;;;10079005;28;1179;-75
2023/02/16 00:45:55;;;;;;;;;;;18.40;49.60;;;;;;10079098;28;921;-75
2023/02/16 00:50:50;;;;;;;;;;;18.40;49.50;;;;;;10078885;28;1919;-74
2023/02/16 00:55:45;;;;;;;;;;;18.40;49.50;;;;;;10079279;28;822;-75
2023/02/16 01:00:41;;;;;;;;;;;18.40;49.60;;;;;;10080261;28;822;-74
2023/02/16 01:05:36;;;;;;;;;;;18.40;49.60;;;;;;10085856;28;889;-74
2023/02/16 01:15:45;;;;;;;;;;;18.40;49.70;;;;;;10085017;28;912;-75
2023/02/16 01:20:41;;;;;;;;;;;18.40;50.10;;;;;;10084833;28;870;-75
2023/02/16 01:25:36;;;;;;;;;;;18.40;49.40;;;;;;10085266;28;873;-75
2023/02/16 01:30:31;;;;;;;;;;;18.40;49.20;;;;;;10084491;28;1980;-75
2023/02/16 01:35:27;;;;;;;;;;;18.40;49.10;;;;;;10084379;28;762;-74
2023/02/16 01:40:22;;;;;;;;;;;18.40;49.10;;;;;;10083931;28;1183;-75
2023/02/16 01:45:17;;;;;;;;;;;18.30;49.10;;;;;;10084231;28;980;-75
2023/02/16 01:50:13;;;;;;;;;;;18.30;49.20;;;;;;10083941;28;1914;-75
2023/02/16 01:55:08;;;;;;;;;;;18.30;49.10;;;;;;10083263;28;904;-75
2023/02/16 02:00:03;;;;;;;;;;;18.30;49.00;;;;;;10083102;28;933;-75
2023/02/16 02:10:13;;;;;;;;;;;18.30;49.10;;;;;;10083452;29;1961;-75
2023/02/16 02:15:08;;;;;;;;;;;18.30;49.10;;;;;;10082140;28;870;-74
2023/02/16 02:20:04;;;;;;;;;;;18.20;49.20;;;;;;10083062;28;924;-75
2023/02/16 02:24:59;;;;;;;;;;;18.30;49.30;;;;;;10083447;28;846;-74
2023/02/16 02:29:55;;;;;;;;;;;18.20;49.80;;;;;;10082679;28;1960;-75
2023/02/16 02:34:50;;;;;;;;;;;18.20;49.30;;;;;;10082605;28;795;-74
2023/02/16 02:39:46;;;;;;;;;;;18.20;49.30;;;;;;10082408;28;1012;-74
2023/02/16 02:44:41;;;;;;;;;;;18.20;49.30;;;;;;10082649;28;1169;-75
2023/02/16 02:49:36;;;;;;;;;;;18.20;49.20;;;;;;10082071;28;1910;-75
2023/02/16 03:05:00;;;;;;;;;;;18.10;49.20;;;;;;10081671;29;593;-75
2023/02/16 03:12:44;;;;;;;;;;;18.10;49.20;;;;;;10081896;28;1907;-75
2023/02/16 03:15:11;;;;;;;;;;;18.10;49.10;;;;;;10080629;28;1638;-75
2023/02/16 03:30:34;;;;;;;;;;;18.10;49.10;;;;;;10081192;29;1969;-75
2023/02/16 03:35:30;;;;;;;;;;;18.10;49.00;;;;;;10080248;28;1039;-75
2023/02/16 03:40:28;;;;;;;;;;;18.10;48.80;;;;;;10080476;28;1268;-74
2023/02/16 03:45:24;;;;;;;;;;;18.10;48.80;;;;;;10080837;28;742;-75
2023/02/16 03:50:19;;;;;;;;;;;18.10;48.60;;;;;;10080863;28;1903;-74
2023/02/16 03:55:14;;;;;;;;;;;18.10;48.70;;;;;;10080824;28;794;-76
2023/02/16 04:00:10;;;;;;;;;;;18.10;48.70;;;;;;10080105;28;814;-75
2023/02/16 04:05:05;;;;;;;;;;;18.10;48.80;;;;;;10080534;28;908;-74
2023/02/16 04:10:00;;;;;;;;;;;18.10;48.70;;;;;;10079406;28;1952;-74
2023/02/16 04:14:56;;;;;;;;;;;18.00;49.30;;;;;;10079751;28;776;-75
2023/02/16 04:19:52;;;;;;;;;;;18.00;48.80;;;;;;10079517;28;1590;-74
2023/02/16 04:24:47;;;;;;;;;;;18.00;48.80;;;;;;10079472;28;972;-74
2023/02/16 04:29:43;;;;;;;;;;;18.00;48.90;;;;;;10079867;28;1958;-75
2023/02/16 04:34:38;;;;;;;;;;;18.00;48.80;;;;;;10079497;28;860;-74
2023/02/16 04:39:33;;;;;;;;;;;18.00;48.80;;;;;;10085997;29;1069;-74
2023/02/16 04:44:29;;;;;;;;;;;18.00;48.70;;;;;;10086773;28;1334;-74
2023/02/16 04:49:24;;;;;;;;;;;18.10;48.80;;;;;;10085730;28;1992;-75
2023/02/16 04:54:20;;;;;;;;;;;18.10;48.60;;;;;;10086207;28;784;-75
2023/02/16 04:59:15;;;;;;;;;;;18.10;48.60;;;;;;10086309;28;927;-75
2023/02/16 05:04:10;;;;;;;;;;;18.10;48.50;;;;;;10085933;28;758;-74
2023/02/16 05:09:06;;;;;;;;;;;18.10;48.50;;;;;;10085369;28;1902;-75
2023/02/16 05:19:15;;;;;;;;;;;18.10;48.70;;;;;;10085209;29;675;-75
2023/02/16 05:24:11;;;;;;;;;;;18.10;48.70;;;;;;10085519;28;925;-75
2023/02/16 05:29:06;;;;;;;;;;;18.10;48.70;;;;;;10084593;28;1902;-75
2023/02/16 05:34:01;;;;;;;;;;;18.10;48.80;;;;;;10084456;28;969;-78
2023/02/16 05:38:57;;;;;;;;;;;18.20;48.80;;;;;;10084481;28;912;-78
2023/02/16 05:43:52;;;;;;;;;;;18.20;48.70;;;;;;10084920;28;1204;-78
2023/02/16 05:48:48;;;;;;;;;;;18.20;48.90;;;;;;10083494;28;1968;-80
2023/02/16 05:53:43;;;;;;;;;;;18.20;48.90;;;;;;10083786;28;825;-80
2023/02/16 05:58:38;;;;;;;;;;;18.20;48.80;;;;;;10083838;28;819;-78
2023/02/16 06:03:34;;;;;;;;;;;18.20;48.80;;;;;;10083543;28;804;-79
2023/02/16 06:08:30;;;;;;;;;;;18.30;48.90;;;;;;10084171;28;1910;-79
2023/02/16 06:13:25;;;;;;;;;;;18.20;48.90;;;;;;10083987;28;1022;-80
2023/02/16 06:18:20;;;;;;;;;;;18.30;49.00;;;;;;10083359;28;872;-79
2023/02/16 06:23:16;;;;;;;;;;;18.20;49.00;;;;;;10083032;28;806;-79
2023/02/16 06:28:11;;;;;;;;;;;18.20;49.30;;;;;;10083414;28;2028;-82
2023/02/16 06:33:06;;;;;;;;;;;18.20;49.20;;;;;;10083263;28;909;-79
2023/02/16 06:38:02;;;;;;;;;;;18.20;49.40;;;;;;10083178;28;766;-79
2023/02/16 06:42:57;;;;;;;;;;;18.20;49.50;;;;;;10081878;28;1280;-76
2023/02/16 06:47:52;;;;;;;;;;;18.20;49.30;;;;;;10082840;28;830;-79
2023/02/16 06:52:48;;;;;;;;;;;18.10;49.30;;;;;;10082015;28;1977;-79
2023/02/16 06:57:43;;;;;;;;;;;18.10;49.20;;;;;;10081253;28;818;-78
2023/02/16 07:02:39;;;;;;;;;;;18.10;49.10;;;;;;10081694;28;814;-80
2023/02/16 07:07:34;;;;;;;;;;;18.00;49.20;;;;;;10082166;28;973;-76
2023/02/16 07:12:29;;;;;;;;;;;18.00;49.10;;;;;;10081591;28;1944;-80
2023/02/16 07:17:25;;;;;;;;;;;18.00;49.40;;;;;;10081543;28;1060;-80
2023/02/16 07:22:20;;;;;;;;;;;18.00;48.50;;;;;;10081252;28;862;-81
2023/02/16 07:27:15;;;;;;;;;;;18.10;48.20;;;;;;10081627;28;802;-81
2023/02/16 07:32:11;;;;;;;;;;;18.20;48.10;;;;;;10081612;28;1895;-81
2023/02/16 07:37:06;;;;;;;;;;;18.20;48.10;;;;;;10080792;28;889;-81
2023/02/16 07:42:02;;;;;;;;;;;18.30;48.50;;;;;;10081174;28;1269;-81
2023/02/16 07:46:57;;;;;;;;;;;18.30;48.60;;;;;;10081111;28;849;-81
2023/02/16 07:51:52;;;;;;;;;;;18.30;48.80;;;;;;10080299;28;1907;-80
2023/02/16 07:56:48;;;;;;;;;;;18.20;48.90;;;;;;10080846;28;949;-81
2023/02/16 08:01:43;;;;;;;;;;;18.20;48.90;;;;;;10080691;28;790;-81
2023/02/16 08:06:38;;;;;;;;;;;18.20;49.80;;;;;;10080038;28;763;-81
2023/02/16 08:11:34;;;;;;;;;;;18.20;49.20;;;;;;10078786;28;1898;-81
2023/02/16 08:16:29;;;;;;;;;;;18.20;49.20;;;;;;10079713;28;877;-81
2023/02/16 08:21:24;;;;;;;;;;;18.20;49.10;;;;;;10080791;28;894;-81
2023/02/16 08:26:20;;;;;;;;;;;18.20;49.10;;;;;;10079485;28;810;-81
2023/02/16 08:31:15;;;;;;;;;;;18.20;49.10;;;;;;10079270;28;1899;-81
2023/02/16 08:36:11;;;;;;;;;;;18.20;49.20;;;;;;10079756;28;977;-76
2023/02/16 08:41:06;;;;;;;;;;;18.20;49.40;;;;;;10078733;28;1175;-79
2023/02/16 08:46:02;;;;;;;;;;;18.30;49.30;;;;;;10078942;28;961;-79
2023/02/16 08:50:57;;;;;;;;;;;18.20;49.20;;;;;;10078247;28;1907;-79
2023/02/16 08:55:53;;;;;;;;;;;18.30;49.00;;;;;;10078831;28;850;-79
2023/02/16 09:00:48;;;;;;;;;;;18.30;48.90;;;;;;10078532;28;842;-80
2023/02/16 09:05:43;;;;;;;;;;;18.30;49.00;;;;;;10079110;28;742;-79
2023/02/16 09:10:39;;;;;;;;;;;18.30;49.00;;;;;;10078481;28;1953;-79
2023/02/16 09:15:34;;;;;;;;;;;18.30;49.20;;;;;;10078475;28;794;-78
2023/02/16 09:20:30;;;;;;;;;;;18.20;49.20;;;;;;10078871;28;892;-79
2023/02/16 09:25:25;;;;;;;;;;;18.30;49.30;;;;;;10084729;28;851;-73
2023/02/16 09:30:20;;;;;;;;;;;18.20;49.20;;;;;;10085645;28;1895;-71
2023/02/16 09:35:16;;;;;;;;;;;18.10;49.50;;;;;;10084523;28;777;-71
2023/02/16 09:40:12;;;;;;;;;;;18.00;49.40;;;;;;10084950;28;868;-81
2023/02/16 09:45:08;;;;;;;;;;;18.00;49.10;;;;;;10083611;28;1407;-78
2023/02/16 09:50:04;;;;;;;;;;;18.00;49.10;;;;;;10084541;28;1911;-84
2023/02/16 09:54:59;;;;;;;;;;;17.90;49.10;;;;;;10083978;28;817;-74
2023/02/16 09:59:55;;;;;;;;;;;17.80;49.30;;;;;;10084349;28;830;-76
2023/02/16 10:04:50;;;;;;;;;;;17.80;49.30;;;;;;10084119;28;854;-76
2023/02/16 10:09:46;;;;;;;;;;;17.70;49.10;;;;;;10083443;28;1964;-75
2023/02/16 10:14:41;;;;;;;;;;;17.70;48.90;;;;;;10083926;28;833;-76
2023/02/16 10:19:37;;;;;;;;;;;17.70;48.80;;;;;;10083704;28;815;-76
2023/02/16 10:24:32;;;;;;;;;;;17.70;48.70;;;;;;10083014;28;791;-76
2023/02/16 10:29:27;;;;;;;;;;;17.70;48.80;;;;;;10083400;28;1965;-76
2023/02/16 10:34:23;;;;;;;;;;;17.60;48.40;;;;;;10082409;28;795;-75
2023/02/16 10:39:18;;;;;;;;;;;17.60;48.20;;;;;;10082622;28;892;-76
2023/02/16 10:44:14;;;;;;;;;;;17.60;48.20;;;;;;10082330;28;1256;-78
2023/02/16 10:49:09;;;;;;;;;;;17.60;48.20;;;;;;10082771;28;1907;-82
2023/02/16 10:54:04;;;;;;;;;;;17.60;48.50;;;;;;10083339;28;909;-77
2023/02/16 10:59:00;;;;;;;;;;;17.60;48.30;;;;;;10082608;28;847;-77
2023/02/16 11:03:55;;;;;;;;;;;17.60;48.50;;;;;;10082350;28;952;-77
2023/02/16 11:08:56;;;;;;;;;;;17.60;48.20;;;;;;10082257;28;1957;-77
2023/02/16 11:13:51;;;;;;;;;;;17.60;48.00;;;;;;10081540;28;857;-77
2023/02/16 11:18:48;;;;;;;;;;;17.60;47.90;;;;;;10082000;28;857;-77
2023/02/16 11:23:44;;;;;;;;;;;17.60;47.90;;;;;;10081157;28;882;-77
2023/02/16 11:28:39;;;;;;;;;;;17.60;48.00;;;;;;10080972;28;1898;-77
2023/02/16 11:33:35;;;;;;;;;;;17.60;48.00;;;;;;10080887;28;931;-77
2023/02/16 11:38:30;;;;;;;;;;;17.60;48.10;;;;;;10081706;28;810;-77
2023/02/16 11:43:26;;;;;;;;;;;17.50;47.90;;;;;;10081306;28;1153;-77
2023/02/16 11:48:21;;;;;;;;;;;17.50;48.00;;;;;;10081038;28;1978;-77
2023/02/16 11:53:17;;;;;;;;;;;17.50;48.00;;;;;;10080388;28;938;-77
2023/02/16 11:58:12;;;;;;;;;;;17.50;48.00;;;;;;10079800;28;953;-77
2023/02/16 12:03:08;;;;;;;;;;;17.50;47.80;;;;;;10079951;28;806;-76
2023/02/16 12:08:03;;;;;;;;;;;17.50;47.90;;;;;;10080562;28;877;-78
2023/02/16 12:12:59;;;;;;;;;;;17.50;48.00;;;;;;10080531;28;1910;-77
2023/02/16 12:17:54;;;;;;;;;;;17.50;48.10;;;;;;10079736;28;872;-77
2023/02/16 12:22:49;;;;;;;;;;;17.50;48.10;;;;;;10080091;28;926;-77
2023/02/16 12:27:45;;;;;;;;;;;17.50;48.00;;;;;;10079443;28;790;-77
2023/02/16 12:32:41;;;;;;;;;;;17.50;47.90;;;;;;10079525;28;1885;-78
2023/02/16 12:37:36;;;;;;;;;;;17.50;47.90;;;;;;10079187;28;870;-75
2023/02/16 12:42:31;;;;;;;;;;;17.50;47.90;;;;;;10079568;28;1378;-76
2023/02/16 12:47:27;;;;;;;;;;;17.50;47.60;;;;;;10079065;28;799;-78
2023/02/16 12:52:22;;;;;;;;;;;17.50;48.00;;;;;;10078837;28;1922;-76
2023/02/16 12:57:18;;;;;;;;;;;17.50;47.90;;;;;;10082012;28;950;-75
2023/02/16 13:02:13;;;;;;;;;;;17.60;48.20;;;;;;10084996;28;1000;-76
2023/02/16 13:07:14;;;;;;;;;;;17.50;48.00;;;;;;10085421;28;904;-76
2023/02/16 13:12:10;;;;;;;;;;;17.50;48.20;;;;;;10085446;28;1911;-76
2023/02/16 13:17:05;;;;;;;;;;;17.50;48.00;;;;;;10085637;28;903;-76
2023/02/16 13:22:01;;;;;;;;;;;17.50;48.00;;;;;;10084981;28;803;-76
2023/02/16 13:26:57;;;;;;;;;;;17.50;48.10;;;;;;10084775;28;853;-76
2023/02/16 13:31:53;;;;;;;;;;;17.50;48.30;;;;;;10085142;29;1919;-79
2023/02/16 13:36:48;;;;;;;;;;;17.50;48.20;;;;;;10085170;28;873;-75
2023/02/16 13:41:44;;;;;;;;;;;17.40;48.30;;;;;;10084231;28;1122;-78
2023/02/16 13:46:39;;;;;;;;;;;17.50;48.30;;;;;;10084214;28;840;-78
2023/02/16 13:51:35;;;;;;;;;;;17.50;48.10;;;;;;10083946;28;1918;-75
2023/02/16 13:56:31;;;;;;;;;;;17.50;48.10;;;;;;10084410;28;869;-76
2023/02/16 14:01:26;;;;;;;;;;;17.50;48.40;;;;;;10083463;28;867;-75
2023/02/16 14:06:21;;;;;;;;;;;17.50;48.40;;;;;;10083271;28;898;-75
2023/02/16 14:11:17;;;;;;;;;;;17.50;48.20;;;;;;10081945;28;1961;-75
2023/02/16 14:16:13;;;;;;;;;;;17.50;48.40;;;;;;10083487;28;893;-75
2023/02/16 14:21:08;;;;;;;;;;;17.50;48.30;;;;;;10082776;28;1123;-76
2023/02/16 14:26:04;;;;;;;;;;;17.50;48.10;;;;;;10082284;28;1314;-75
2023/02/16 14:30:59;;;;;;;;;;;17.50;48.20;;;;;;10082447;28;1965;-77
2023/02/16 14:35:55;;;;;;;;;;;17.50;48.20;;;;;;10082342;28;837;-78
2023/02/16 14:40:50;;;;;;;;;;;17.50;48.20;;;;;;10081624;28;1153;-74
2023/02/16 14:45:45;;;;;;;;;;;17.50;48.30;;;;;;10082781;28;841;-75
2023/02/16 14:50:41;;;;;;;;;;;17.50;48.20;;;;;;10081903;28;1927;-76
2023/02/16 14:55:36;;;;;;;;;;;17.50;48.10;;;;;;10081206;29;830;-76
2023/02/16 15:00:32;;;;;;;;;;;17.50;48.10;;;;;;10082318;28;839;-76
2023/02/16 15:05:28;;;;;;;;;;;17.50;48.10;;;;;;10081758;28;867;-77
2023/02/16 15:10:25;;;;;;;;;;;17.50;48.20;;;;;;10081775;28;1979;-77
2023/02/16 15:15:22;;;;;;;;;;;17.50;48.20;;;;;;10081736;28;809;-76
2023/02/16 15:20:18;;;;;;;;;;;17.50;48.10;;;;;;10080897;28;1173;-76
2023/02/16 15:25:14;;;;;;;;;;;17.50;48.20;;;;;;10081216;28;830;-77
2023/02/16 15:30:10;;;;;;;;;;;17.60;48.40;;;;;;10081033;28;1899;-77
2023/02/16 15:35:06;;;;;;;;;;;17.80;48.90;;;;;;10081558;28;872;-73
2023/02/16 15:40:01;;;;;;;;;;;18.00;48.70;;;;;;10080260;28;826;-76
2023/02/16 15:44:56;;;;;;;;;;;18.10;48.70;;;;;;10082136;28;1351;-76
2023/02/16 15:49:52;;;;;;;;;;;18.10;48.90;;;;;;10080484;28;1918;-78
2023/02/16 15:54:48;;;;;;;;;;;18.10;48.90;;;;;;10081516;28;834;-74
2023/02/16 15:59:43;;;;;;;;;;;18.00;48.80;;;;;;10080840;28;810;-77
2023/02/16 16:04:38;;;;;;;;;;;18.00;48.90;;;;;;10080131;28;830;-77
2023/02/16 16:09:34;;;;;;;;;;;18.00;49.00;;;;;;10080381;28;1962;-77
2023/02/16 16:14:29;;;;;;;;;;;18.00;49.00;;;;;;10079802;28;795;-77
2023/02/16 16:19:25;;;;;;;;;;;18.00;48.90;;;;;;10079737;28;763;-77
2023/02/16 16:24:21;;;;;;;;;;;18.00;49.10;;;;;;10080352;28;858;-77
2023/02/16 16:29:16;;;;;;;;;;;18.00;49.00;;;;;;10080562;28;1910;-77
2023/02/16 16:34:12;;;;;;;;;;;18.00;48.90;;;;;;10084172;28;897;-77
2023/02/16 16:39:07;;;;;;;;;;;17.90;49.00;;;;;;10086371;28;870;-77
2023/02/16 16:44:03;;;;;;;;;;;18.00;49.00;;;;;;10086266;28;1343;-77
2023/02/16 16:49:03;;;;;;;;;;;18.00;48.90;;;;;;10085976;28;1918;-77
2023/02/16 16:54:02;;;;;;;;;;;17.90;49.60;;;;;;10085887;28;833;-77
2023/02/16 16:58:58;;;;;;;;;;;18.00;48.90;;;;;;10086254;28;858;-74
2023/02/16 17:03:53;;;;;;;;;;;18.00;48.80;;;;;;10086451;28;838;-76
2023/02/16 17:08:49;;;;;;;;;;;17.90;48.70;;;;;;10085324;28;1907;-75
2023/02/16 17:13:44;;;;;;;;;;;17.90;48.70;;;;;;10085303;28;778;-76
2023/02/16 17:18:39;;;;;;;;;;;17.90;48.70;;;;;;10085104;29;841;-77
2023/02/16 17:23:35;;;;;;;;;;;18.00;48.80;;;;;;10084970;28;906;-77
2023/02/16 17:28:35;;;;;;;;;;;18.00;48.70;;;;;;10084683;28;1915;-77
2023/02/16 17:33:30;;;;;;;;;;;18.00;48.60;;;;;;10084602;28;930;-77
2023/02/16 17:38:26;;;;;;;;;;;18.00;48.50;;;;;;10084538;28;778;-76
2023/02/16 17:43:21;;;;;;;;;;;18.00;48.60;;;;;;10084494;28;1374;-76
2023/02/16 17:48:17;;;;;;;;;;;18.00;48.50;;;;;;10084982;28;845;-74
2023/02/16 17:53:12;;;;;;;;;;;18.00;48.60;;;;;;10083990;28;1898;-76
2023/02/16 17:58:07;;;;;;;;;;;18.00;48.60;;;;;;10083354;28;893;-76
2023/02/16 18:03:03;;;;;;;;;;;18.00;48.50;;;;;;10084431;28;896;-76
2023/02/16 18:07:58;;;;;;;;;;;18.00;48.50;;;;;;10083645;28;795;-77
2023/02/16 18:12:53;;;;;;;;;;;18.00;48.40;;;;;;10083918;28;1898;-77
2023/02/16 18:17:49;;;;;;;;;;;18.10;48.40;;;;;;10083443;28;810;-76
2023/02/16 18:22:44;;;;;;;;;;;18.00;48.30;;;;;;10083247;28;881;-76
2023/02/16 18:27:39;;;;;;;;;;;18.10;48.40;;;;;;10083089;28;793;-77
2023/02/16 18:32:35;;;;;;;;;;;18.10;48.30;;;;;;10082864;28;1899;-77
2023/02/16 18:37:30;;;;;;;;;;;18.00;48.30;;;;;;10082173;28;967;-75
2023/02/16 18:42:25;;;;;;;;;;;18.00;48.20;;;;;;10082314;28;1320;-77
2023/02/16 18:47:21;;;;;;;;;;;17.90;48.40;;;;;;10082458;28;868;-77
2023/02/16 18:52:16;;;;;;;;;;;17.80;48.30;;;;;;10082809;28;1958;-77
2023/02/16 18:57:12;;;;;;;;;;;17.70;48.50;;;;;;10081977;28;830;-76
2023/02/16 19:02:07;;;;;;;;;;;17.70;48.50;;;;;;10082559;28;858;-77
2023/02/16 19:07:03;;;;;;;;;;;17.70;48.50;;;;;;10082427;28;838;-78
2023/02/16 19:11:58;;;;;;;;;;;17.70;48.50;;;;;;10081155;28;1958;-77
2023/02/16 19:16:53;;;;;;;;;;;17.60;48.60;;;;;;10081575;28;807;-78
2023/02/16 19:21:49;;;;;;;;;;;17.70;48.70;;;;;;10081967;28;818;-76
2023/02/16 19:26:44;;;;;;;;;;;17.70;48.50;;;;;;10081867;28;759;-78
2023/02/16 19:31:39;;;;;;;;;;;17.80;48.50;;;;;;10080976;28;1899;-75
2023/02/16 19:36:35;;;;;;;;;;;17.90;48.30;;;;;;10080936;28;794;-75
2023/02/16 19:41:30;;;;;;;;;;;17.90;48.10;;;;;;10080348;28;1196;-75
2023/02/16 19:46:26;;;;;;;;;;;17.90;48.00;;;;;;10080414;28;850;-74
2023/02/16 19:51:21;;;;;;;;;;;17.90;48.00;;;;;;10080698;28;1978;-75
2023/02/16 19:56:16;;;;;;;;;;;17.90;48.30;;;;;;10080704;28;941;-75
2023/02/16 20:01:12;;;;;;;;;;;17.90;48.30;;;;;;10080578;28;798;-75
2023/02/16 20:06:07;;;;;;;;;;;17.90;48.50;;;;;;10080315;28;850;-75
2023/02/16 20:11:03;;;;;;;;;;;17.90;48.70;;;;;;10080148;28;1894;-75
2023/02/16 20:15:58;;;;;;;;;;;17.90;48.60;;;;;;10080701;28;949;-75
2023/02/16 20:20:54;;;;;;;;;;;17.90;48.70;;;;;;10080051;28;836;-75
2023/02/16 20:25:49;;;;;;;;;;;17.90;48.90;;;;;;10080103;28;813;-75
2023/02/16 20:30:45;;;;;;;;;;;17.90;48.90;;;;;;10078598;28;1903;-75
2023/02/16 20:35:40;;;;;;;;;;;17.90;49.10;;;;;;10079025;28;821;-75
2023/02/16 20:40:36;;;;;;;;;;;17.90;49.20;;;;;;10078809;28;1111;-76
2023/02/16 20:45:31;;;;;;;;;;;17.80;49.20;;;;;;10078851;28;965;-76
2023/02/16 20:50:26;;;;;;;;;;;17.90;49.20;;;;;;10078668;28;1911;-75
2023/02/16 20:55:22;;;;;;;;;;;17.90;49.10;;;;;;10078591;28;793;-75
2023/02/16 21:00:20;;;;;;;;;;;17.90;49.20;;;;;;10079273;28;867;-75
2023/02/16 21:05:15;;;;;;;;;;;17.90;49.20;;;;;;10078243;28;897;-80
2023/02/16 21:10:11;;;;;;;;;;;17.90;49.20;;;;;;10078100;28;1966;-77
2023/02/16 21:15:06;;;;;;;;;;;17.90;49.40;;;;;;10078726;28;806;-76
2023/02/16 21:20:01;;;;;;;;;;;17.80;49.70;;;;;;10083205;28;759;-77
2023/02/16 21:24:57;;;;;;;;;;;17.70;49.50;;;;;;10085589;28;810;-77
2023/02/16 21:29:52;;;;;;;;;;;17.70;49.50;;;;;;10085027;28;1968;-76
2023/02/16 21:34:48;;;;;;;;;;;17.70;49.60;;;;;;10085231;28;842;-76
2023/02/16 21:45:12;;;;;;;;;;;17.70;49.50;;;;;;10084423;29;2048;-76
2023/02/16 21:50:08;;;;;;;;;;;17.70;49.30;;;;;;10084119;28;1964;-76
2023/02/16 22:00:18;;;;;;;;;;;17.70;49.30;;;;;;10084003;29;652;-76
2023/02/16 22:05:13;;;;;;;;;;;17.70;49.30;;;;;;10083721;28;894;-76
2023/02/16 22:10:08;;;;;;;;;;;17.70;49.30;;;;;;10084216;28;1962;-76
2023/02/16 22:15:04;;;;;;;;;;;17.70;49.20;;;;;;10083485;28;810;-76
2023/02/16 22:19:59;;;;;;;;;;;17.70;49.20;;;;;;10083668;28;822;-76
2023/02/16 22:24:55;;;;;;;;;;;17.70;49.20;;;;;;10083199;28;782;-76
2023/02/16 22:29:50;;;;;;;;;;;17.70;49.20;;;;;;10082692;28;1968;-77
2023/02/16 22:34:45;;;;;;;;;;;17.60;49.30;;;;;;10082860;28;776;-77
2023/02/16 22:39:41;;;;;;;;;;;17.70;49.30;;;;;;10083845;28;972;-77
2023/02/16 22:44:36;;;;;;;;;;;17.60;49.20;;;;;;10082927;28;1220;-77
2023/02/16 22:49:32;;;;;;;;;;;17.70;49.20;;;;;;10083433;28;1972;-77
2023/02/16 22:54:27;;;;;;;;;;;17.70;49.30;;;;;;10082891;28;774;-77
2023/02/16 22:59:22;;;;;;;;;;;17.60;49.20;;;;;;10082148;28;772;-77
2023/02/16 23:04:18;;;;;;;;;;;17.60;49.30;;;;;;10082003;28;995;-77
2023/02/16 23:09:13;;;;;;;;;;;17.70;49.20;;;;;;10082966;28;1962;-77
2023/02/16 23:14:15;;;;;;;;;;;17.70;49.20;;;;;;10081638;28;1129;-77
2023/02/16 23:19:10;;;;;;;;;;;17.70;49.20;;;;;;10082539;28;818;-77
2023/02/16 23:24:05;;;;;;;;;;;17.60;49.20;;;;;;10081976;28;825;-77
2023/02/16 23:29:01;;;;;;;;;;;17.70;49.20;;;;;;10081228;28;1910;-78
2023/02/16 23:33:56;;;;;;;;;;;17.70;49.20;;;;;;10081057;28;922;-77
2023/02/16 23:38:51;;;;;;;;;;;17.70;49.20;;;;;;10080920;28;814;-77
2023/02/16 23:43:47;;;;;;;;;;;17.70;49.10;;;;;;10081219;28;1364;-77
2023/02/16 23:48:42;;;;;;;;;;;17.60;49.10;;;;;;10081211;28;1999;-77
2023/02/16 23:53:38;;;;;;;;;;;17.70;49.20;;;;;;10081166;28;826;-77
2023/02/16 23:58:33;;;;;;;;;;;17.70;49.20;;;;;;10079803;28;1226;-75
